Time,TemperatureF,DewpointF,PressureIn,WindDirection,WindDirectionDegrees,WindSpeedMPH,WindSpeedGustMPH,Humidity,HourlyPrecipIn,Conditions,Clouds,dailyrainin,SoftwareType,DateUTC
2013-01-10 00:00:00,70.8,66.4,30.27,ENE,68,0.8,3.1,86,0.00,,,0.00,WUHU216HW,2013-01-10 05:00:00,
2013-01-10 00:02:00,70.8,66.4,30.27,ENE,68,2.4,3.1,86,0.00,,,0.00,WUHU216HW,2013-01-10 05:02:00,
2013-01-10 00:03:00,70.8,66.4,30.27,ENE,68,1.5,3.1,86,0.00,,,0.00,WUHU216HW,2013-01-10 05:03:00,
2013-01-10 00:08:00,70.8,66.7,30.27,ENE,68,2.9,3.1,87,0.00,,,0.00,WUHU216HW,2013-01-10 05:08:00,
2013-01-10 00:13:00,70.8,66.7,30.27,ENE,68,1.7,2.9,87,0.00,,,0.00,WUHU216HW,2013-01-10 05:13:00,
2013-01-10 00:18:00,70.8,66.7,30.27,ENE,68,1.1,4.2,87,0.00,,,0.00,WUHU216HW,2013-01-10 05:18:00,
2013-01-10 00:23:00,70.7,66.6,30.27,ENE,68,6.9,6.9,87,0.00,,,0.00,WUHU216HW,2013-01-10 05:23:00,
2013-01-10 00:28:00,70.7,66.6,30.26,ENE,68,2.6,6.9,87,0.00,,,0.00,WUHU216HW,2013-01-10 05:28:00,
2013-01-10 00:33:00,70.7,66.6,30.26,ENE,68,4.2,4.2,87,0.00,,,0.00,WUHU216HW,2013-01-10 05:33:00,
2013-01-10 00:38:00,70.7,66.6,30.26,ENE,68,2.2,4.2,87,0.00,,,0.00,WUHU216HW,2013-01-10 05:38:00,
2013-01-10 00:43:00,70.5,66.4,30.26,ENE,68,1.5,3.8,87,0.00,,,0.00,WUHU216HW,2013-01-10 05:43:00,
2013-01-10 00:48:00,70.7,66.6,30.27,ENE,68,0.6,2.4,87,0.00,,,0.00,WUHU216HW,2013-01-10 05:48:00,
2013-01-10 00:53:00,70.7,66.6,30.26,ENE,68,2.6,2.6,87,0.00,,,0.00,WUHU216HW,2013-01-10 05:53:00,
2013-01-10 00:58:00,70.5,66.4,30.27,ENE,68,0.6,2.6,87,0.00,,,0.00,WUHU216HW,2013-01-10 05:58:00,
2013-01-10 01:03:00,70.7,66.6,30.26,ENE,68,2.0,2.9,87,0.00,,,0.00,WUHU216HW,2013-01-10 06:03:00,
2013-01-10 01:08:00,70.5,66.4,30.26,ENE,68,2.2,2.9,87,0.00,,,0.00,WUHU216HW,2013-01-10 06:08:00,
2013-01-10 01:13:00,70.5,66.4,30.26,ENE,68,0.6,2.9,87,0.00,,,0.00,WUHU216HW,2013-01-10 06:13:00,
2013-01-10 01:18:00,70.5,66.4,30.26,ENE,68,3.1,3.3,87,0.00,,,0.00,WUHU216HW,2013-01-10 06:18:00,
2013-01-10 01:23:00,70.5,66.4,30.26,ENE,68,1.7,3.8,87,0.00,,,0.00,WUHU216HW,2013-01-10 06:23:00,
2013-01-10 01:28:00,70.5,66.4,30.26,ENE,68,2.4,5.3,87,0.00,,,0.00,WUHU216HW,2013-01-10 06:28:00,
2013-01-10 01:33:00,70.5,66.7,30.26,ENE,68,0.6,5.3,88,0.00,,,0.00,WUHU216HW,2013-01-10 06:33:00,
2013-01-10 01:38:00,70.5,66.7,30.26,ENE,68,0.4,4.2,88,0.00,,,0.00,WUHU216HW,2013-01-10 06:38:00,
2013-01-10 01:43:00,70.5,66.7,30.26,ENE,68,0.0,2.9,88,0.00,,,0.00,WUHU216HW,2013-01-10 06:43:00,
2013-01-10 01:48:00,70.3,66.5,30.26,ENE,68,1.1,4.0,88,0.00,,,0.00,WUHU216HW,2013-01-10 06:48:00,
2013-01-10 01:53:00,70.3,66.5,30.26,ENE,68,2.2,4.0,88,0.00,,,0.00,WUHU216HW,2013-01-10 06:53:00,
2013-01-10 01:58:00,70.3,66.5,30.26,ENE,68,2.4,3.1,88,0.00,,,0.00,WUHU216HW,2013-01-10 06:58:00,
2013-01-10 02:03:00,70.3,66.5,30.27,ENE,68,1.5,3.1,88,0.00,,,0.00,WUHU216HW,2013-01-10 07:03:00,
2013-01-10 02:08:00,70.1,66.5,30.26,ENE,68,2.4,2.6,88,0.00,,,0.00,WUHU216HW,2013-01-10 07:08:00,
2013-01-10 02:13:00,70.1,66.4,30.26,ENE,68,2.2,2.6,88,0.00,,,0.00,WUHU216HW,2013-01-10 07:13:00,
2013-01-10 02:18:00,70.1,66.4,30.26,ENE,68,0.0,2.6,88,0.00,,,0.00,WUHU216HW,2013-01-10 07:18:00,
2013-01-10 02:23:00,70.1,66.4,30.26,ENE,68,1.5,2.4,88,0.00,,,0.00,WUHU216HW,2013-01-10 07:23:00,
2013-01-10 02:28:00,69.9,66.2,30.26,ENE,68,2.0,2.6,88,0.00,,,0.00,WUHU216HW,2013-01-10 07:28:00,
2013-01-10 02:33:00,69.9,66.2,30.26,ENE,68,1.5,2.6,88,0.00,,,0.00,WUHU216HW,2013-01-10 07:33:00,
2013-01-10 02:38:00,69.9,66.2,30.26,ENE,68,0.0,3.5,88,0.00,,,0.00,WUHU216HW,2013-01-10 07:38:00,
2013-01-10 02:43:00,69.9,66.2,30.26,ENE,68,0.8,3.5,88,0.00,,,0.00,WUHU216HW,2013-01-10 07:43:00,
2013-01-10 02:48:00,69.9,66.2,30.26,ENE,68,3.1,3.1,88,0.00,,,0.00,WUHU216HW,2013-01-10 07:48:00,
2013-01-10 02:53:00,69.9,66.2,30.26,ENE,68,2.0,3.1,88,0.00,,,0.00,WUHU216HW,2013-01-10 07:53:00,
2013-01-10 02:58:00,69.9,66.2,30.26,ENE,68,2.9,2.9,88,0.00,,,0.00,WUHU216HW,2013-01-10 07:58:00,
2013-01-10 03:03:00,69.8,66.0,30.26,ENE,68,1.3,2.9,88,0.00,,,0.00,WUHU216HW,2013-01-10 08:03:00,
2013-01-10 03:08:00,69.6,65.8,30.26,ENE,68,2.9,2.9,88,0.00,,,0.00,WUHU216HW,2013-01-10 08:08:00,
2013-01-10 03:13:00,69.6,65.8,30.26,ENE,68,1.1,2.9,88,0.00,,,0.00,WUHU216HW,2013-01-10 08:13:00,
2013-01-10 03:18:00,69.6,65.8,30.26,ENE,68,0.0,1.7,88,0.00,,,0.00,WUHU216HW,2013-01-10 08:18:00,
2013-01-10 03:23:00,69.6,65.8,30.26,ENE,68,0.6,1.7,88,0.00,,,0.00,WUHU216HW,2013-01-10 08:23:00,
2013-01-10 03:28:00,69.6,65.8,30.26,ENE,68,1.5,2.2,88,0.00,,,0.00,WUHU216HW,2013-01-10 08:28:00,
2013-01-10 03:33:00,69.6,65.8,30.26,ENE,68,0.6,2.2,88,0.00,,,0.00,WUHU216HW,2013-01-10 08:33:00,
2013-01-10 03:38:00,69.6,65.8,30.25,ENE,68,1.3,1.5,88,0.00,,,0.00,WUHU216HW,2013-01-10 08:38:00,
2013-01-10 03:43:00,69.6,65.8,30.25,ENE,68,0.8,2.6,88,0.00,,,0.00,WUHU216HW,2013-01-10 08:43:00,
2013-01-10 03:48:00,69.4,65.6,30.25,ENE,68,1.5,2.6,88,0.00,,,0.00,WUHU216HW,2013-01-10 08:48:00,
2013-01-10 03:53:00,69.4,66.0,30.25,ENE,68,0.8,2.6,89,0.00,,,0.00,WUHU216HW,2013-01-10 08:53:00,
2013-01-10 03:58:00,69.2,65.8,30.25,ENE,68,1.5,2.6,89,0.00,,,0.00,WUHU216HW,2013-01-10 08:58:00,
2013-01-10 04:03:00,69.2,65.8,30.25,ENE,68,2.0,2.2,89,0.00,,,0.00,WUHU216HW,2013-01-10 09:03:00,
2013-01-10 04:08:00,69.2,65.8,30.25,ENE,68,0.6,2.2,89,0.00,,,0.00,WUHU216HW,2013-01-10 09:08:00,
2013-01-10 04:13:00,69.0,65.8,30.25,ENE,68,1.5,3.1,89,0.00,,,0.00,WUHU216HW,2013-01-10 09:13:00,
2013-01-10 04:18:00,69.0,65.6,30.24,ENE,68,0.0,4.9,89,0.00,,,0.00,WUHU216HW,2013-01-10 09:18:00,
2013-01-10 04:23:00,69.0,65.6,30.24,ENE,68,1.5,4.9,89,0.00,,,0.00,WUHU216HW,2013-01-10 09:23:00,
2013-01-10 04:28:00,69.0,65.6,30.24,ENE,68,1.1,2.9,89,0.00,,,0.00,WUHU216HW,2013-01-10 09:28:00,
2013-01-10 04:33:00,69.0,65.6,30.24,ENE,68,0.0,2.6,89,0.00,,,0.00,WUHU216HW,2013-01-10 09:33:00,
2013-01-10 04:38:00,69.0,65.6,30.24,ENE,68,0.0,2.0,89,0.00,,,0.00,WUHU216HW,2013-01-10 09:38:00,
2013-01-10 04:43:00,69.0,65.6,30.24,ENE,68,0.0,3.1,89,0.00,,,0.00,WUHU216HW,2013-01-10 09:43:00,
2013-01-10 04:48:00,68.9,65.4,30.24,ENE,68,0.0,3.1,89,0.00,,,0.00,WUHU216HW,2013-01-10 09:48:00,
2013-01-10 04:53:00,68.9,65.4,30.24,ENE,68,1.3,2.6,89,0.00,,,0.00,WUHU216HW,2013-01-10 09:53:00,
2013-01-10 04:58:00,68.9,65.4,30.24,ENE,68,2.2,2.4,89,0.00,,,0.00,WUHU216HW,2013-01-10 09:58:00,
2013-01-10 05:03:00,68.9,65.4,30.24,ENE,68,0.8,2.6,89,0.00,,,0.00,WUHU216HW,2013-01-10 10:03:00,
2013-01-10 05:08:00,68.7,65.3,30.25,ENE,68,0.0,2.6,89,0.00,,,0.00,WUHU216HW,2013-01-10 10:08:00,
2013-01-10 05:13:00,68.7,65.3,30.25,ENE,68,1.3,2.0,89,0.00,,,0.00,WUHU216HW,2013-01-10 10:13:00,
2013-01-10 05:18:00,68.7,65.3,30.25,ENE,68,0.0,2.0,89,0.00,,,0.00,WUHU216HW,2013-01-10 10:18:00,
2013-01-10 05:23:00,68.7,65.3,30.25,ENE,68,1.1,2.0,89,0.00,,,0.00,WUHU216HW,2013-01-10 10:23:00,
2013-01-10 05:28:00,68.5,65.1,30.25,ENE,68,1.3,2.2,89,0.00,,,0.00,WUHU216HW,2013-01-10 10:28:00,
2013-01-10 05:33:00,68.5,65.1,30.24,ENE,68,1.5,2.2,89,0.00,,,0.00,WUHU216HW,2013-01-10 10:33:00,
2013-01-10 05:38:00,68.5,65.1,30.24,ENE,68,0.0,2.2,89,0.00,,,0.00,WUHU216HW,2013-01-10 10:38:00,
2013-01-10 05:43:00,68.5,65.1,30.24,ENE,68,0.0,2.2,89,0.00,,,0.00,WUHU216HW,2013-01-10 10:43:00,
2013-01-10 05:48:00,68.3,64.9,30.24,ENE,68,1.5,2.4,89,0.00,,,0.00,WUHU216HW,2013-01-10 10:48:00,
2013-01-10 05:53:00,68.3,64.9,30.24,ENE,68,2.0,2.6,89,0.00,,,0.00,WUHU216HW,2013-01-10 10:53:00,
2013-01-10 05:58:00,68.3,64.9,30.24,North,0,0.0,3.8,89,0.00,,,0.00,WUHU216HW,2013-01-10 10:58:00,
2013-01-10 06:03:00,68.3,64.9,30.24,ENE,68,0.0,3.8,89,0.00,,,0.00,WUHU216HW,2013-01-10 11:03:00,
2013-01-10 06:08:00,68.1,64.7,30.24,ENE,68,1.7,3.3,89,0.00,,,0.00,WUHU216HW,2013-01-10 11:08:00,
2013-01-10 06:13:00,68.1,64.7,30.25,ENE,68,1.5,3.3,89,0.00,,,0.00,WUHU216HW,2013-01-10 11:13:00,
2013-01-10 06:18:00,68.1,64.7,30.25,ENE,68,0.6,3.3,89,0.00,,,0.00,WUHU216HW,2013-01-10 11:18:00,
2013-01-10 06:23:00,68.1,64.7,30.25,ENE,68,2.0,2.0,89,0.00,,,0.00,WUHU216HW,2013-01-10 11:23:00,
2013-01-10 06:28:00,68.1,64.7,30.25,ENE,68,0.8,2.0,89,0.00,,,0.00,WUHU216HW,2013-01-10 11:28:00,
2013-01-10 06:33:00,68.1,64.7,30.25,ENE,68,0.8,2.6,89,0.00,,,0.00,WUHU216HW,2013-01-10 11:33:00,
2013-01-10 06:38:00,68.1,64.7,30.25,ENE,68,0.0,2.6,89,0.00,,,0.00,WUHU216HW,2013-01-10 11:38:00,
2013-01-10 06:43:00,68.0,64.6,30.25,ENE,68,1.3,1.5,89,0.00,,,0.00,WUHU216HW,2013-01-10 11:43:00,
2013-01-10 06:48:00,67.8,64.4,30.25,ENE,68,0.0,1.7,89,0.00,,,0.00,WUHU216HW,2013-01-10 11:48:00,
2013-01-10 06:53:00,67.8,64.4,30.25,ENE,68,2.0,2.0,89,0.00,,,0.00,WUHU216HW,2013-01-10 11:53:00,
2013-01-10 06:58:00,67.8,64.4,30.25,ENE,68,0.0,2.6,89,0.00,,,0.00,WUHU216HW,2013-01-10 11:58:00,
2013-01-10 07:03:00,67.6,64.2,30.25,ENE,68,1.5,2.6,89,0.00,,,0.00,WUHU216HW,2013-01-10 12:03:00,
2013-01-10 07:08:00,67.6,64.2,30.25,ENE,68,1.1,2.6,89,0.00,,,0.00,WUHU216HW,2013-01-10 12:08:00,
2013-01-10 07:13:00,67.6,64.2,30.25,ENE,68,2.6,3.1,89,0.00,,,0.00,WUHU216HW,2013-01-10 12:13:00,
2013-01-10 07:18:00,67.2,63.8,30.26,ENE,68,0.0,3.1,89,0.00,,,0.00,WUHU216HW,2013-01-10 12:18:00,
2013-01-10 07:23:00,67.2,63.8,30.26,ENE,68,1.3,2.6,89,0.00,,,0.00,WUHU216HW,2013-01-10 12:23:00,
2013-01-10 07:28:00,67.2,63.8,30.26,ENE,68,0.0,3.1,89,0.00,,,0.00,WUHU216HW,2013-01-10 12:28:00,
2013-01-10 07:33:00,67.2,63.8,30.26,ENE,68,2.0,3.8,89,0.00,,,0.00,WUHU216HW,2013-01-10 12:33:00,
2013-01-10 07:38:00,67.2,63.8,30.26,ENE,68,1.3,3.8,89,0.00,,,0.00,WUHU216HW,2013-01-10 12:38:00,
2013-01-10 07:43:00,67.2,63.8,30.26,ENE,68,0.0,3.1,89,0.00,,,0.00,WUHU216HW,2013-01-10 12:43:00,
2013-01-10 07:48:00,67.2,64.2,30.27,ENE,68,1.3,3.1,90,0.00,,,0.00,WUHU216HW,2013-01-10 12:48:00,
2013-01-10 07:53:00,67.2,64.2,30.27,ENE,68,1.5,3.5,90,0.00,,,0.00,WUHU216HW,2013-01-10 12:53:00,
2013-01-10 07:58:00,67.4,64.4,30.27,ENE,68,1.7,3.8,90,0.00,,,0.00,WUHU216HW,2013-01-10 12:58:00,
2013-01-10 08:03:00,67.6,64.5,30.26,ENE,68,4.6,4.6,90,0.00,,,0.00,WUHU216HW,2013-01-10 13:03:00,
2013-01-10 08:08:00,67.6,64.5,30.27,ENE,68,3.1,4.6,90,0.00,,,0.00,WUHU216HW,2013-01-10 13:08:00,
2013-01-10 08:13:00,67.6,64.5,30.27,ENE,68,2.2,3.5,90,0.00,,,0.00,WUHU216HW,2013-01-10 13:13:00,
2013-01-10 08:18:00,67.8,64.7,30.27,ENE,68,3.1,5.8,90,0.00,,,0.00,WUHU216HW,2013-01-10 13:18:00,
2013-01-10 08:23:00,67.8,64.7,30.28,ENE,68,3.1,5.8,90,0.00,,,0.00,WUHU216HW,2013-01-10 13:23:00,
2013-01-10 08:28:00,68.0,64.9,30.28,ENE,68,1.1,4.6,90,0.00,,,0.00,WUHU216HW,2013-01-10 13:28:00,
2013-01-10 08:33:00,68.1,65.1,30.28,ENE,68,1.3,4.6,90,0.00,,,0.00,WUHU216HW,2013-01-10 13:33:00,
2013-01-10 08:38:00,68.3,65.3,30.28,ENE,68,2.6,4.9,90,0.00,,,0.00,WUHU216HW,2013-01-10 13:38:00,
2013-01-10 08:43:00,68.5,65.4,30.28,ENE,68,3.5,4.9,90,0.00,,,0.00,WUHU216HW,2013-01-10 13:43:00,
2013-01-10 08:48:00,68.7,65.6,30.28,ENE,68,1.7,3.5,90,0.00,,,0.00,WUHU216HW,2013-01-10 13:48:00,
2013-01-10 08:53:00,68.9,65.8,30.28,ENE,68,3.5,3.5,90,0.00,,,0.00,WUHU216HW,2013-01-10 13:53:00,
2013-01-10 08:58:00,69.0,66.0,30.28,ENE,68,2.6,5.1,90,0.00,,,0.00,WUHU216HW,2013-01-10 13:58:00,
2013-01-10 09:03:00,69.0,66.0,30.28,East,90,0.0,5.1,90,0.00,,,0.00,WUHU216HW,2013-01-10 14:03:00,
2013-01-10 09:08:00,69.4,66.3,30.28,NE,45,0.0,4.9,90,0.00,,,0.00,WUHU216HW,2013-01-10 14:08:00,
2013-01-10 09:13:00,69.6,66.5,30.28,ENE,68,0.8,6.2,90,0.00,,,0.00,WUHU216HW,2013-01-10 14:13:00,
2013-01-10 09:18:00,69.8,66.7,30.28,ENE,68,1.5,6.2,90,0.00,,,0.00,WUHU216HW,2013-01-10 14:18:00,
2013-01-10 09:23:00,69.9,66.9,30.28,ENE,68,2.6,4.9,90,0.00,,,0.00,WUHU216HW,2013-01-10 14:23:00,
2013-01-10 09:28:00,70.3,67.2,30.28,ENE,68,2.9,5.8,90,0.00,,,0.00,WUHU216HW,2013-01-10 14:28:00,
2013-01-10 09:33:00,70.5,67.4,30.28,East,90,1.3,5.8,90,0.00,,,0.00,WUHU216HW,2013-01-10 14:33:00,
2013-01-10 09:38:00,70.8,67.4,30.28,East,90,1.3,3.1,89,0.00,,,0.00,WUHU216HW,2013-01-10 14:38:00,
2013-01-10 09:43:00,71.2,67.6,30.28,SE,135,1.1,6.9,89,0.00,,,0.00,WUHU216HW,2013-01-10 14:43:00,
2013-01-10 09:48:00,71.2,67.8,30.28,East,90,2.0,6.9,89,0.00,,,0.00,WUHU216HW,2013-01-10 14:48:00,
2013-01-10 09:53:00,71.4,67.6,30.28,NE,45,6.2,6.2,88,0.00,,,0.00,WUHU216HW,2013-01-10 14:53:00,
2013-01-10 09:58:00,71.7,68.0,30.27,NE,45,1.3,6.2,88,0.00,,,0.00,WUHU216HW,2013-01-10 14:58:00,
2013-01-10 10:03:00,71.9,67.8,30.27,ENE,68,0.0,3.8,87,0.00,,,0.00,WUHU216HW,2013-01-10 15:03:00,
2013-01-10 10:08:00,72.1,68.0,30.27,ESE,113,2.9,10.0,87,0.00,,,0.00,WUHU216HW,2013-01-10 15:08:00,
2013-01-10 10:13:00,72.5,68.0,30.26,ESE,113,2.0,10.0,86,0.00,,,0.00,WUHU216HW,2013-01-10 15:13:00,
2013-01-10 10:18:00,72.6,68.2,30.26,SSE,158,2.2,8.9,86,0.00,,,0.00,WUHU216HW,2013-01-10 15:18:00,
2013-01-10 10:23:00,73.0,68.2,30.26,ESE,113,0.6,3.5,85,0.00,,,0.00,WUHU216HW,2013-01-10 15:23:00,
2013-01-10 10:28:00,73.4,68.1,30.25,East,90,8.2,8.2,84,0.00,,,0.00,WUHU216HW,2013-01-10 15:28:00,
2013-01-10 10:33:00,73.7,68.3,30.25,ENE,68,0.2,8.2,83,0.00,,,0.00,WUHU216HW,2013-01-10 15:33:00,
2013-01-10 10:38:00,73.9,68.1,30.25,North,0,4.2,6.4,82,0.00,,,0.00,WUHU216HW,2013-01-10 15:38:00,
2013-01-10 10:43:00,74.1,67.9,30.25,East,90,4.6,6.4,81,0.00,,,0.00,WUHU216HW,2013-01-10 15:43:00,
2013-01-10 10:48:00,74.3,68.3,30.25,SSE,158,1.1,4.9,81,0.00,,,0.00,WUHU216HW,2013-01-10 15:48:00,
2013-01-10 10:54:00,74.6,67.3,30.24,South,180,2.9,7.1,78,0.00,,,0.00,WUHU216HW,2013-01-10 15:54:00,
2013-01-10 10:59:00,75.0,67.7,30.24,SE,135,12.0,12.0,78,0.00,,,0.00,WUHU216HW,2013-01-10 15:59:00,
2013-01-10 11:04:00,75.2,67.1,30.24,SE,135,0.0,12.0,76,0.00,,,0.00,WUHU216HW,2013-01-10 16:04:00,
2013-01-10 11:09:00,75.3,67.6,30.24,East,90,5.8,6.9,77,0.00,,,0.00,WUHU216HW,2013-01-10 16:09:00,
2013-01-10 11:14:00,75.7,67.2,30.23,SE,135,2.2,6.9,75,0.00,,,0.00,WUHU216HW,2013-01-10 16:14:00,
2013-01-10 11:19:00,75.9,67.5,30.23,SE,135,6.4,6.4,75,0.00,,,0.00,WUHU216HW,2013-01-10 16:19:00,
2013-01-10 11:24:00,76.6,68.1,30.22,NE,45,3.8,6.4,74,0.00,,,0.00,WUHU216HW,2013-01-10 16:24:00,
2013-01-10 11:29:00,77.0,68.0,30.22,NW,315,1.1,6.2,74,0.00,,,0.00,WUHU216HW,2013-01-10 16:29:00,
2013-01-10 11:34:00,77.1,68.2,30.21,NE,45,11.4,11.4,74,0.00,,,0.00,WUHU216HW,2013-01-10 16:34:00,
2013-01-10 11:39:00,77.3,68.5,30.21,NE,45,6.0,11.4,74,0.00,,,0.00,WUHU216HW,2013-01-10 16:39:00,
2013-01-10 11:44:00,77.7,68.3,30.21,ESE,113,4.2,15.2,73,0.00,,,0.00,WUHU216HW,2013-01-10 16:44:00,
2013-01-10 11:49:00,77.9,68.1,30.21,ENE,68,2.9,15.2,72,0.00,,,0.00,WUHU216HW,2013-01-10 16:49:00,
2013-01-10 11:54:00,78.0,68.6,30.21,SSE,158,6.0,6.0,72,0.00,,,0.00,WUHU216HW,2013-01-10 16:54:00,
2013-01-10 11:59:00,78.4,68.2,30.21,SE,135,5.3,7.8,71,0.00,,,0.00,WUHU216HW,2013-01-10 16:59:00,
2013-01-10 12:04:00,78.6,68.3,30.20,NNW,338,0.0,7.8,71,0.00,,,0.00,WUHU216HW,2013-01-10 17:04:00,
2013-01-10 12:09:00,78.6,68.0,30.20,East,90,1.7,6.4,70,0.00,,,0.00,WUHU216HW,2013-01-10 17:09:00,
2013-01-10 12:14:00,78.6,68.3,30.20,SSE,158,4.6,6.4,71,0.00,,,0.00,WUHU216HW,2013-01-10 17:14:00,
2013-01-10 12:19:00,78.6,68.3,30.20,East,90,1.1,5.8,71,0.00,,,0.00,WUHU216HW,2013-01-10 17:19:00,
2013-01-10 12:24:00,78.9,68.7,30.20,East,90,6.2,6.2,71,0.00,,,0.00,WUHU216HW,2013-01-10 17:24:00,
2013-01-10 12:29:00,78.9,68.3,30.20,ENE,68,8.0,8.0,70,0.00,,,0.00,WUHU216HW,2013-01-10 17:29:00,
2013-01-10 12:34:00,78.9,68.3,30.19,NE,45,3.3,8.0,70,0.00,,,0.00,WUHU216HW,2013-01-10 17:34:00,
2013-01-10 12:39:00,78.9,68.3,30.19,SE,135,4.9,6.9,70,0.00,,,0.00,WUHU216HW,2013-01-10 17:39:00,
2013-01-10 12:44:00,78.9,68.3,30.18,East,90,3.8,6.9,70,0.00,,,0.00,WUHU216HW,2013-01-10 17:44:00,
2013-01-10 12:49:00,78.9,68.3,30.18,SSE,158,4.6,5.8,70,0.00,,,0.00,WUHU216HW,2013-01-10 17:49:00,
2013-01-10 12:54:00,79.1,68.0,30.19,East,90,2.0,5.8,69,0.00,,,0.00,WUHU216HW,2013-01-10 17:54:00,
2013-01-10 12:59:00,79.1,68.0,30.19,ENE,68,2.9,4.6,69,0.00,,,0.00,WUHU216HW,2013-01-10 17:59:00,
2013-01-10 13:04:00,79.5,68.4,30.18,SE,135,0.8,6.9,69,0.00,,,0.00,WUHU216HW,2013-01-10 18:04:00,
2013-01-10 13:09:00,79.8,68.8,30.19,ESE,113,3.3,8.9,69,0.00,,,0.00,WUHU216HW,2013-01-10 18:09:00,
2013-01-10 13:14:00,79.8,68.3,30.18,ESE,113,1.3,8.9,68,0.00,,,0.00,WUHU216HW,2013-01-10 18:14:00,
2013-01-10 13:19:00,79.8,67.9,30.18,ESE,113,5.8,5.8,67,0.00,,,0.00,WUHU216HW,2013-01-10 18:19:00,
2013-01-10 13:24:00,79.8,68.3,30.18,SSE,158,1.7,5.8,68,0.00,,,0.00,WUHU216HW,2013-01-10 18:24:00,
2013-01-10 13:29:00,80.4,68.9,30.18,East,90,2.6,4.0,68,0.00,,,0.00,WUHU216HW,2013-01-10 18:29:00,
2013-01-10 13:34:00,80.7,69.2,30.18,NE,45,2.6,6.0,68,0.00,,,0.00,WUHU216HW,2013-01-10 18:34:00,
2013-01-10 13:39:00,81.5,69.8,30.18,SE,135,5.1,6.0,68,0.00,,,0.00,WUHU216HW,2013-01-10 18:39:00,
2013-01-10 13:44:00,81.5,68.5,30.18,ENE,68,5.1,8.5,65,0.00,,,0.00,WUHU216HW,2013-01-10 18:44:00,
2013-01-10 13:49:00,81.3,68.3,30.18,East,90,1.7,8.5,65,0.00,,,0.00,WUHU216HW,2013-01-10 18:49:00,
2013-01-10 13:54:00,81.5,68.0,30.18,SSE,158,0.8,7.8,64,0.00,,,0.00,WUHU216HW,2013-01-10 18:54:00,
2013-01-10 13:59:00,81.5,68.0,30.18,SE,135,6.0,7.8,64,0.00,,,0.00,WUHU216HW,2013-01-10 18:59:00,
2013-01-10 14:04:00,81.6,68.2,30.18,SW,225,0.6,6.7,64,0.00,,,0.00,WUHU216HW,2013-01-10 19:04:00,
2013-01-10 14:09:00,82.2,68.7,30.18,ENE,68,5.5,6.7,64,0.00,,,0.00,WUHU216HW,2013-01-10 19:09:00,
2013-01-10 14:14:00,82.2,68.7,30.19,East,90,0.6,6.4,63,0.00,,,0.00,WUHU216HW,2013-01-10 19:14:00,
2013-01-10 14:19:00,82.4,68.4,30.19,NE,45,5.1,9.1,63,0.00,,,0.00,WUHU216HW,2013-01-10 19:19:00,
2013-01-10 14:24:00,82.7,69.0,30.19,South,180,3.3,9.1,64,0.00,,,0.00,WUHU216HW,2013-01-10 19:24:00,
2013-01-10 14:29:00,83.1,69.1,30.19,East,90,4.9,6.0,63,0.00,,,0.00,WUHU216HW,2013-01-10 19:29:00,
2013-01-10 14:34:00,82.9,68.0,30.19,ESE,113,3.1,5.5,61,0.00,,,0.00,WUHU216HW,2013-01-10 19:34:00,
2013-01-10 14:39:00,82.5,67.7,30.19,ESE,113,0.6,3.8,61,0.00,,,0.00,WUHU216HW,2013-01-10 19:39:00,
2013-01-10 14:44:00,82.9,68.5,30.19,ENE,68,2.4,5.8,62,0.00,,,0.00,WUHU216HW,2013-01-10 19:44:00,
2013-01-10 14:49:00,83.4,69.0,30.19,East,90,0.0,5.8,61,0.00,,,0.00,WUHU216HW,2013-01-10 19:49:00,
2013-01-10 14:54:00,84.0,69.1,30.19,NE,45,0.0,7.3,61,0.00,,,0.00,WUHU216HW,2013-01-10 19:54:00,
2013-01-10 14:59:00,84.0,68.7,30.19,ESE,113,2.6,7.3,60,0.00,,,0.00,WUHU216HW,2013-01-10 19:59:00,
2013-01-10 15:04:00,84.0,69.1,30.19,NE,45,5.1,7.6,61,0.00,,,0.00,WUHU216HW,2013-01-10 20:04:00,
2013-01-10 15:09:00,84.7,69.3,30.19,NE,45,4.2,9.8,60,0.00,,,0.00,WUHU216HW,2013-01-10 20:09:00,
2013-01-10 15:14:00,85.1,69.1,30.19,SE,135,4.4,9.8,59,0.00,,,0.00,WUHU216HW,2013-01-10 20:14:00,
2013-01-10 15:19:00,84.9,69.0,30.19,ENE,68,1.7,7.6,59,0.00,,,0.00,WUHU216HW,2013-01-10 20:19:00,
2013-01-10 15:24:00,84.3,69.2,30.19,ENE,68,5.8,7.6,60,0.00,,,0.00,WUHU216HW,2013-01-10 20:24:00,
2013-01-10 15:29:00,83.4,68.1,30.20,ESE,113,0.2,7.6,60,0.00,,,0.00,WUHU216HW,2013-01-10 20:29:00,
2013-01-10 15:34:00,83.3,68.9,30.20,East,90,1.7,6.0,62,0.00,,,0.00,WUHU216HW,2013-01-10 20:34:00,
2013-01-10 15:39:00,83.8,69.4,30.20,SE,135,3.8,6.0,62,0.00,,,0.00,WUHU216HW,2013-01-10 20:39:00,
2013-01-10 15:44:00,84.5,69.6,30.20,ENE,68,4.4,6.0,61,0.00,,,0.00,WUHU216HW,2013-01-10 20:44:00,
2013-01-10 15:49:00,84.5,69.2,30.20,ESE,113,2.6,7.8,60,0.00,,,0.00,WUHU216HW,2013-01-10 20:49:00,
2013-01-10 15:54:00,84.0,68.7,30.20,ENE,68,1.1,7.8,60,0.00,,,0.00,WUHU216HW,2013-01-10 20:54:00,
2013-01-10 15:59:00,83.8,68.9,30.20,East,90,1.1,5.1,61,0.00,,,0.00,WUHU216HW,2013-01-10 20:59:00,
2013-01-10 16:05:00,84.0,69.1,30.20,ENE,68,1.7,4.4,61,0.00,,,0.00,WUHU216HW,2013-01-10 21:05:00,
2013-01-10 16:10:00,84.0,68.7,30.21,NE,45,5.1,5.1,60,0.00,,,0.00,WUHU216HW,2013-01-10 21:10:00,
2013-01-10 16:15:00,83.3,68.4,30.21,SSE,158,2.4,5.1,61,0.00,,,0.00,WUHU216HW,2013-01-10 21:15:00,
2013-01-10 16:20:00,82.5,67.7,30.21,SE,135,0.0,6.0,61,0.00,,,0.00,WUHU216HW,2013-01-10 21:20:00,
2013-01-10 16:25:00,82.0,67.6,30.21,ENE,68,2.9,6.0,62,0.00,,,0.00,WUHU216HW,2013-01-10 21:25:00,
2013-01-10 16:30:00,81.5,67.6,30.22,SE,135,2.0,4.9,63,0.00,,,0.00,WUHU216HW,2013-01-10 21:30:00,
2013-01-10 16:35:00,81.1,67.3,30.21,ESE,113,2.2,4.9,63,0.00,,,0.00,WUHU216HW,2013-01-10 21:35:00,
2013-01-10 16:40:00,80.6,66.8,30.21,ENE,68,7.3,7.3,63,0.00,,,0.00,WUHU216HW,2013-01-10 21:40:00,
2013-01-10 16:45:00,80.4,67.1,30.21,ENE,68,0.6,7.3,64,0.00,,,0.00,WUHU216HW,2013-01-10 21:45:00,
2013-01-10 16:50:00,79.8,66.5,30.22,East,90,3.5,4.2,64,0.00,,,0.00,WUHU216HW,2013-01-10 21:50:00,
2013-01-10 16:55:00,79.5,66.2,30.22,East,90,2.6,4.9,64,0.00,,,0.00,WUHU216HW,2013-01-10 21:55:00,
2013-01-10 17:00:00,79.1,66.3,30.22,East,90,1.3,4.9,65,0.00,,,0.00,WUHU216HW,2013-01-10 22:00:00,
2013-01-10 17:05:00,78.9,66.1,30.22,ENE,68,1.5,3.1,65,0.00,,,0.00,WUHU216HW,2013-01-10 22:05:00,
2013-01-10 17:10:00,78.6,65.8,30.22,East,90,2.0,3.5,65,0.00,,,0.00,WUHU216HW,2013-01-10 22:10:00,
2013-01-10 17:15:00,78.6,65.8,30.22,ESE,113,0.0,3.5,65,0.00,,,0.00,WUHU216HW,2013-01-10 22:15:00,
2013-01-10 17:20:00,78.6,65.8,30.23,East,90,4.6,4.6,65,0.00,,,0.00,WUHU216HW,2013-01-10 22:20:00,
2013-01-10 17:25:00,78.4,65.6,30.22,East,90,1.1,5.8,65,0.00,,,0.00,WUHU216HW,2013-01-10 22:25:00,
2013-01-10 17:30:00,78.0,65.3,30.22,East,90,0.0,5.8,65,0.00,,,0.00,WUHU216HW,2013-01-10 22:30:00,
2013-01-10 17:35:00,77.9,65.1,30.22,East,90,1.7,5.5,65,0.00,,,0.00,WUHU216HW,2013-01-10 22:35:00,
2013-01-10 17:40:00,77.7,65.4,30.22,NE,45,0.0,5.3,66,0.00,,,0.00,WUHU216HW,2013-01-10 22:40:00,
2013-01-10 17:45:00,77.5,65.2,30.22,ENE,68,1.1,5.3,66,0.00,,,0.00,WUHU216HW,2013-01-10 22:45:00,
2013-01-10 17:50:00,77.5,65.2,30.22,ENE,68,1.5,6.0,66,0.00,,,0.00,WUHU216HW,2013-01-10 22:50:00,
2013-01-10 17:55:00,77.3,65.0,30.22,ENE,68,0.6,6.0,66,0.00,,,0.00,WUHU216HW,2013-01-10 22:55:00,
2013-01-10 18:00:00,77.1,65.3,30.22,East,90,0.0,4.6,67,0.00,,,0.00,WUHU216HW,2013-01-10 23:00:00,
2013-01-10 18:05:00,76.8,65.0,30.22,ENE,68,2.6,5.8,67,0.00,,,0.00,WUHU216HW,2013-01-10 23:05:00,
2013-01-10 18:10:00,76.8,65.0,30.22,East,90,2.4,5.8,67,0.00,,,0.00,WUHU216HW,2013-01-10 23:10:00,
2013-01-10 18:15:00,76.4,64.6,30.22,SE,135,4.6,4.6,67,0.00,,,0.00,WUHU216HW,2013-01-10 23:15:00,
2013-01-10 18:20:00,76.2,64.9,30.22,ENE,68,2.6,6.0,68,0.00,,,0.00,WUHU216HW,2013-01-10 23:20:00,
2013-01-10 18:25:00,75.9,64.5,30.22,East,90,0.0,6.0,68,0.00,,,0.00,WUHU216HW,2013-01-10 23:25:00,
2013-01-10 18:30:00,75.7,64.4,30.23,East,90,0.8,2.9,68,0.00,,,0.00,WUHU216HW,2013-01-10 23:30:00,
2013-01-10 18:35:00,75.3,64.0,30.22,ENE,68,0.0,2.9,68,0.00,,,0.00,WUHU216HW,2013-01-10 23:35:00,
2013-01-10 18:40:00,75.2,63.8,30.23,ENE,68,2.0,3.5,68,0.00,,,0.00,WUHU216HW,2013-01-10 23:40:00,
2013-01-10 18:45:00,74.8,63.9,30.22,ENE,68,6.7,6.7,69,0.00,,,0.00,WUHU216HW,2013-01-10 23:45:00,
2013-01-10 18:50:00,74.8,63.9,30.22,ENE,68,3.8,6.7,69,0.00,,,0.00,WUHU216HW,2013-01-10 23:50:00,
2013-01-10 18:55:00,74.4,64.1,30.23,ENE,68,0.0,6.7,70,0.00,,,0.00,WUHU216HW,2013-01-10 23:55:00,
2013-01-10 19:00:00,74.1,63.7,30.23,East,90,2.4,6.2,70,0.00,,,0.00,WUHU216HW,2013-01-11 00:00:00,
2013-01-10 19:05:00,73.9,64.0,30.23,ENE,68,1.1,3.5,71,0.00,,,0.00,WUHU216HW,2013-01-11 00:05:00,
2013-01-10 19:10:00,73.7,63.8,30.23,ENE,68,3.5,3.5,71,0.00,,,0.00,WUHU216HW,2013-01-11 00:10:00,
2013-01-10 19:16:00,73.4,63.5,30.23,ENE,68,0.0,3.5,71,0.00,,,0.00,WUHU216HW,2013-01-11 00:16:00,
2013-01-10 19:21:00,73.0,63.1,30.23,East,90,0.6,5.1,71,0.00,,,0.00,WUHU216HW,2013-01-11 00:21:00,
2013-01-10 19:26:00,72.8,63.3,30.23,ENE,68,5.1,5.8,72,0.00,,,0.00,WUHU216HW,2013-01-11 00:26:00,
2013-01-10 19:31:00,72.5,62.9,30.24,ENE,68,7.3,7.3,72,0.00,,,0.00,WUHU216HW,2013-01-11 00:31:00,
2013-01-10 19:36:00,72.3,63.1,30.23,ENE,68,2.0,7.3,73,0.00,,,0.00,WUHU216HW,2013-01-11 00:36:00,
2013-01-10 19:41:00,72.1,63.0,30.23,ENE,68,2.0,6.2,73,0.00,,,0.00,WUHU216HW,2013-01-11 00:41:00,
2013-01-10 19:46:00,72.1,63.0,30.24,ENE,68,4.6,5.8,73,0.00,,,0.00,WUHU216HW,2013-01-11 00:46:00,
2013-01-10 19:51:00,71.9,62.8,30.24,NE,45,0.0,5.8,73,0.00,,,0.00,WUHU216HW,2013-01-11 00:51:00,
2013-01-10 19:56:00,71.9,62.8,30.23,ENE,68,4.9,4.9,73,0.00,,,0.00,WUHU216HW,2013-01-11 00:56:00,
2013-01-10 20:01:00,71.7,62.6,30.23,ENE,68,1.7,6.0,73,0.00,,,0.00,WUHU216HW,2013-01-11 01:01:00,
2013-01-10 20:06:00,71.7,62.6,30.24,East,90,0.0,6.0,73,0.00,,,0.00,WUHU216HW,2013-01-11 01:06:00,
2013-01-10 20:11:00,71.4,62.2,30.24,East,90,0.0,4.0,73,0.00,,,0.00,WUHU216HW,2013-01-11 01:11:00,
2013-01-10 20:16:00,71.4,62.6,30.23,East,90,0.0,4.0,74,0.00,,,0.00,WUHU216HW,2013-01-11 01:16:00,
2013-01-10 20:21:00,71.2,62.4,30.24,ENE,68,3.8,3.8,74,0.00,,,0.00,WUHU216HW,2013-01-11 01:21:00,
2013-01-10 20:26:00,71.2,62.4,30.24,ENE,68,0.0,5.8,74,0.00,,,0.00,WUHU216HW,2013-01-11 01:26:00,
2013-01-10 20:31:00,71.2,62.8,30.24,ENE,68,4.2,5.8,75,0.00,,,0.00,WUHU216HW,2013-01-11 01:31:00,
2013-01-10 20:36:00,70.8,62.5,30.23,East,90,0.0,4.2,75,0.00,,,0.00,WUHU216HW,2013-01-11 01:36:00,
2013-01-10 20:41:00,70.8,62.5,30.24,East,90,2.2,3.1,75,0.00,,,0.00,WUHU216HW,2013-01-11 01:41:00,
2013-01-10 20:46:00,70.7,62.3,30.24,East,90,0.0,4.9,75,0.00,,,0.00,WUHU216HW,2013-01-11 01:46:00,
2013-01-10 20:51:00,70.5,62.1,30.24,East,90,0.0,4.9,75,0.00,,,0.00,WUHU216HW,2013-01-11 01:51:00,
2013-01-10 20:56:00,70.5,62.5,30.24,East,90,0.6,4.2,76,0.00,,,0.00,WUHU216HW,2013-01-11 01:56:00,
2013-01-10 21:01:00,70.3,62.3,30.25,ENE,68,0.0,4.2,76,0.00,,,0.00,WUHU216HW,2013-01-11 02:01:00,
2013-01-10 21:06:00,70.3,62.7,30.25,ENE,68,0.0,2.4,77,0.00,,,0.00,WUHU216HW,2013-01-11 02:06:00,
2013-01-10 21:11:00,70.1,62.5,30.25,ENE,68,2.2,2.4,77,0.00,,,0.00,WUHU216HW,2013-01-11 02:11:00,
2013-01-10 21:16:00,70.1,62.5,30.25,East,90,0.0,5.8,77,0.00,,,0.00,WUHU216HW,2013-01-11 02:16:00,
2013-01-10 21:21:00,69.9,62.3,30.25,East,90,4.6,5.8,77,0.00,,,0.00,WUHU216HW,2013-01-11 02:21:00,
2013-01-10 21:26:00,69.9,62.3,30.25,East,90,0.0,4.6,77,0.00,,,0.00,WUHU216HW,2013-01-11 02:26:00,
2013-01-10 21:34:00,69.8,62.1,30.25,East,90,0.6,3.1,77,0.00,,,0.00,WUHU216HW,2013-01-11 02:34:00,
2013-01-10 21:39:00,69.8,62.1,30.25,East,90,1.7,1.7,77,0.00,,,0.00,WUHU216HW,2013-01-11 02:39:00,
2013-01-10 21:44:00,69.6,62.4,30.25,ENE,68,2.6,4.9,78,0.00,,,0.00,WUHU216HW,2013-01-11 02:44:00,
2013-01-10 21:49:00,69.6,62.4,30.25,ENE,68,2.0,4.9,78,0.00,,,0.00,WUHU216HW,2013-01-11 02:49:00,
2013-01-10 21:54:00,69.6,62.4,30.25,ENE,68,5.1,5.1,78,0.00,,,0.00,WUHU216HW,2013-01-11 02:54:00,
2013-01-10 21:59:00,69.6,62.7,30.26,ENE,68,3.8,5.1,79,0.00,,,0.00,WUHU216HW,2013-01-11 02:59:00,
2013-01-10 22:04:00,69.6,62.7,30.26,ENE,68,0.4,4.0,79,0.00,,,0.00,WUHU216HW,2013-01-11 03:04:00,
2013-01-10 22:09:00,69.6,62.7,30.26,ENE,68,0.0,3.8,79,0.00,,,0.00,WUHU216HW,2013-01-11 03:09:00,
2013-01-10 22:14:00,69.4,62.6,30.25,ENE,68,2.4,2.4,79,0.00,,,0.00,WUHU216HW,2013-01-11 03:14:00,
2013-01-10 22:19:00,69.4,62.6,30.25,ENE,68,0.0,2.4,79,0.00,,,0.00,WUHU216HW,2013-01-11 03:19:00,
2013-01-10 22:24:00,69.4,62.6,30.25,ENE,68,1.1,2.6,79,0.00,,,0.00,WUHU216HW,2013-01-11 03:24:00,
2013-01-10 22:29:00,69.0,62.2,30.25,East,90,1.5,3.5,79,0.00,,,0.00,WUHU216HW,2013-01-11 03:29:00,
2013-01-10 22:34:00,69.0,62.2,30.25,East,90,1.3,3.5,79,0.00,,,0.00,WUHU216HW,2013-01-11 03:34:00,
2013-01-10 22:39:00,69.0,62.2,30.25,East,90,3.1,3.1,79,0.00,,,0.00,WUHU216HW,2013-01-11 03:39:00,
2013-01-10 22:44:00,68.9,62.5,30.25,ENE,68,3.3,3.5,80,0.00,,,0.00,WUHU216HW,2013-01-11 03:44:00,
2013-01-10 22:49:00,68.9,62.5,30.25,ENE,68,0.8,3.5,80,0.00,,,0.00,WUHU216HW,2013-01-11 03:49:00,
2013-01-10 22:54:00,68.7,62.3,30.25,ENE,68,0.0,2.6,80,0.00,,,0.00,WUHU216HW,2013-01-11 03:54:00,
2013-01-10 22:59:00,68.7,62.3,30.25,ENE,68,4.0,4.0,80,0.00,,,0.00,WUHU216HW,2013-01-11 03:59:00,
2013-01-10 23:04:00,68.7,62.6,30.25,ENE,68,0.0,4.0,81,0.00,,,0.00,WUHU216HW,2013-01-11 04:04:00,
2013-01-10 23:09:00,68.7,62.6,30.25,ENE,68,0.0,3.1,81,0.00,,,0.00,WUHU216HW,2013-01-11 04:09:00,
2013-01-10 23:14:00,68.5,62.5,30.25,ENE,68,0.4,3.1,81,0.00,,,0.00,WUHU216HW,2013-01-11 04:14:00,
2013-01-10 23:19:00,68.5,62.5,30.25,ENE,68,0.0,2.9,81,0.00,,,0.00,WUHU216HW,2013-01-11 04:19:00,
2013-01-10 23:24:00,68.5,62.5,30.25,ENE,68,0.0,2.9,81,0.00,,,0.00,WUHU216HW,2013-01-11 04:24:00,
2013-01-10 23:29:00,68.5,62.5,30.25,East,90,0.4,2.2,81,0.00,,,0.00,WUHU216HW,2013-01-11 04:29:00,
2013-01-10 23:34:00,68.5,62.5,30.25,East,90,1.3,2.2,81,0.00,,,0.00,WUHU216HW,2013-01-11 04:34:00,
2013-01-10 23:39:00,68.3,62.6,30.25,East,90,1.3,2.4,82,0.00,,,0.00,WUHU216HW,2013-01-11 04:39:00,
2013-01-10 23:44:00,68.3,62.6,30.25,East,90,1.1,2.4,82,0.00,,,0.00,WUHU216HW,2013-01-11 04:44:00,
2013-01-10 23:49:00,68.3,62.6,30.25,East,90,0.0,1.7,82,0.00,,,0.00,WUHU216HW,2013-01-11 04:49:00,
2013-01-10 23:54:00,68.1,62.5,30.25,East,90,0.0,0.8,82,0.00,,,0.00,WUHU216HW,2013-01-11 04:54:00,
2013-01-10 23:59:00,68.1,62.5,30.25,East,90,0.0,0.8,82,0.00,,,0.00,WUHU216HW,2013-01-11 04:59:00,